Terminal Aerodrome Forecast
Issued by NWS

Home | Current Version | Previous Version | Text Only | Print | Product List | Glossary On
Versions: 1 2 3 4 5 6 7 8 9 10 11 12
000
FTUS45 KTFX 301700
TAFHLN
TAF
KHLN 301720Z 3018/3118 VRB06KT P6SM SKC
     FM302200 VRB06KT P6SM VCTS SCT090CB BKN120
     FM310300 VRB06KT P6SM SKC=

USA.gov is the U.S. government's official web portal to all federal, state and local government web resources and services.